Time;durP1;ratioP1;P1;durP2;ratioP2;P2;SDS_P1;SDS_P2;PMS_P1;PMS_P2;Temp;Humidity;BMP_temperature;BMP_pressure;BME280_temperature;BME280_humidity;BME280_pressure;Samples;Min_cycle;Max_cycle;Signal;HPM_P1;HPM_P2
2022/05/16 00:00:53;;;;;;;2.58;1.95;;;23.10;97.50;;;;;;4190670;28;20211;-75
2022/05/16 00:03:00;;;;;;;4.07;2.47;;;23.10;97.50;;;;;;4194575;28;20211;-74
2022/05/16 00:05:05;;;;;;;2.53;1.90;;;23.10;97.50;;;;;;4194221;28;20273;-74
2022/05/16 00:07:07;;;;;;;3.13;2.42;;;23.10;97.50;;;;;;4193521;28;20272;-74
2022/05/16 00:09:10;;;;;;;3.20;2.17;;;23.10;97.50;;;;;;4192863;28;21717;-74
2022/05/16 00:11:12;;;;;;;2.40;2.20;;;23.10;97.50;;;;;;4194049;28;20268;-74
2022/05/16 00:13:15;;;;;;;2.40;2.20;;;23.10;97.50;;;;;;4194255;28;20215;-74
2022/05/16 00:15:20;;;;;;;2.78;2.00;;;23.10;97.50;;;;;;4194208;28;20654;-74
2022/05/16 00:17:22;;;;;;;3.65;2.33;;;23.10;97.50;;;;;;4193271;28;20223;-74
2022/05/16 00:19:24;;;;;;;1.98;1.77;;;23.10;97.50;;;;;;4192959;28;20210;-74
2022/05/16 00:21:28;;;;;;;2.80;2.33;;;23.10;97.60;;;;;;4193599;28;20219;-74
2022/05/16 00:23:30;;;;;;;2.70;2.28;;;23.10;97.60;;;;;;4192207;28;20687;-74
2022/05/16 00:25:33;;;;;;;4.20;2.35;;;23.00;97.50;;;;;;4192691;28;20223;-74
2022/05/16 00:27:35;;;;;;;2.42;2.08;;;23.00;97.50;;;;;;4193002;28;20912;-74
2022/05/16 00:29:38;;;;;;;2.78;1.98;;;23.10;97.50;;;;;;4192721;28;20215;-74
2022/05/16 00:31:40;;;;;;;2.75;2.40;;;23.00;97.50;;;;;;4193506;28;20332;-74
2022/05/16 00:33:43;;;;;;;2.88;2.10;;;23.10;97.50;;;;;;4192935;28;20276;-74
2022/05/16 00:35:45;;;;;;;2.53;2.33;;;23.00;97.50;;;;;;4193412;28;20303;-74
2022/05/16 00:37:49;;;;;;;2.67;2.00;;;23.10;97.60;;;;;;4192886;28;20273;-74
2022/05/16 00:39:51;;;;;;;2.85;2.40;;;23.00;97.50;;;;;;4192841;28;20223;-74
2022/05/16 00:41:53;;;;;;;5.63;2.40;;;23.10;97.60;;;;;;4191783;28;20268;-74
2022/05/16 00:43:58;;;;;;;2.65;2.00;;;23.00;97.60;;;;;;4192876;28;20215;-74
2022/05/16 00:46:00;;;;;;;5.25;2.30;;;23.10;97.60;;;;;;4193094;28;20211;-74
2022/05/16 00:48:04;;;;;;;4.68;2.33;;;23.00;97.60;;;;;;4192926;28;20269;-74
2022/05/16 00:50:08;;;;;;;3.42;2.42;;;23.00;97.60;;;;;;4193533;28;20227;-74
2022/05/16 00:52:15;;;;;;;2.30;2.08;;;23.00;97.60;;;;;;4194039;28;20261;-74
2022/05/16 00:54:23;;;;;;;2.22;1.92;;;23.00;97.60;;;;;;4192645;28;20223;-74
2022/05/16 00:56:27;;;;;;;3.10;2.13;;;23.10;97.70;;;;;;4187685;28;20308;-74
2022/05/16 00:58:29;;;;;;;3.05;2.40;;;23.00;97.60;;;;;;4192564;28;20269;-74
2022/05/16 01:00:35;;;;;;;2.67;1.85;;;23.00;97.50;;;;;;4192788;28;20277;-74
2022/05/16 01:05:00;;;;;;;2.63;2.30;;;23.00;97.60;;;;;;4193526;28;20663;-74
2022/05/16 01:07:04;;;;;;;2.63;2.10;;;23.00;97.60;;;;;;4193388;28;20227;-74
2022/05/16 01:09:07;;;;;;;2.95;2.30;;;23.00;97.60;;;;;;4193458;28;20243;-74
2022/05/16 01:11:14;;;;;;;3.33;2.28;;;23.00;97.60;;;;;;4192810;28;20709;-74
2022/05/16 01:13:16;;;;;;;2.88;2.10;;;23.00;97.70;;;;;;4192839;28;20227;-74
2022/05/16 01:15:29;;;;;;;2.67;2.30;;;23.00;97.60;;;;;;4193020;28;20309;-74
2022/05/16 01:17:31;;;;;;;3.45;2.05;;;23.00;97.60;;;;;;4192166;28;20268;-74
2022/05/16 01:19:33;;;;;;;2.55;2.33;;;23.00;97.70;;;;;;4192610;28;20349;-74
2022/05/16 01:21:38;;;;;;;3.28;2.20;;;23.00;97.70;;;;;;4192301;28;20244;-74
2022/05/16 01:23:45;;;;;;;2.88;2.40;;;23.00;97.70;;;;;;4191847;28;20219;-74
2022/05/16 01:25:51;;;;;;;2.50;2.08;;;23.00;97.70;;;;;;4192835;28;20644;-74
2022/05/16 01:27:56;;;;;;;3.78;2.30;;;23.00;97.70;;;;;;4193336;28;20219;-74
2022/05/16 01:29:58;;;;;;;2.60;2.13;;;23.00;97.70;;;;;;4192567;28;20214;-74
2022/05/16 01:32:00;;;;;;;2.30;2.08;;;23.00;97.70;;;;;;4191738;28;20252;-74
2022/05/16 01:34:04;;;;;;;2.55;2.30;;;23.00;97.70;;;;;;4191667;28;20651;-74
2022/05/16 01:36:07;;;;;;;3.03;2.40;;;23.00;97.70;;;;;;4193437;28;20265;-74
2022/05/16 01:38:22;;;;;;;2.50;2.30;;;23.00;97.70;;;;;;4191900;28;21543;-74
2022/05/16 01:40:26;;;;;;;3.60;2.20;;;23.00;97.70;;;;;;4192459;28;20632;-74
2022/05/16 01:42:28;;;;;;;2.92;2.42;;;23.00;97.70;;;;;;4191602;28;20626;-74
2022/05/16 01:44:31;;;;;;;3.00;2.25;;;23.00;97.70;;;;;;4191736;28;20219;-74
2022/05/16 01:46:36;;;;;;;2.70;2.30;;;23.00;97.70;;;;;;4190910;28;20223;-74
2022/05/16 01:48:38;;;;;;;3.13;2.42;;;22.90;97.60;;;;;;4191737;28;20243;-74
2022/05/16 01:50:42;;;;;;;2.60;2.10;;;23.00;97.70;;;;;;4192302;28;20223;-74
2022/05/16 01:52:44;;;;;;;2.83;2.30;;;22.90;97.70;;;;;;4193036;28;20284;-74
2022/05/16 01:54:46;;;;;;;2.70;2.35;;;23.00;97.70;;;;;;4190273;28;20218;-74
2022/05/16 01:56:50;;;;;;;2.65;2.30;;;22.90;97.60;;;;;;4192666;28;20219;-74
2022/05/16 01:58:52;;;;;;;3.25;2.20;;;22.90;97.70;;;;;;4191468;28;20223;-74
2022/05/16 02:00:55;;;;;;;2.97;1.90;;;23.00;97.70;;;;;;4191654;28;20253;-75
2022/05/16 02:02:57;;;;;;;2.50;2.30;;;22.90;97.70;;;;;;4191795;28;20725;-74
2022/05/16 02:05:00;;;;;;;2.45;2.20;;;22.90;97.70;;;;;;4190680;28;20269;-74
2022/05/16 02:07:02;;;;;;;3.85;2.30;;;23.00;97.80;;;;;;4191751;28;20707;-74
2022/05/16 02:09:04;;;;;;;3.10;2.30;;;22.90;98.10;;;;;;4191093;28;20318;-74
2022/05/16 02:11:08;;;;;;;4.28;2.42;;;22.90;97.80;;;;;;4191388;28;20223;-74
2022/05/16 02:13:12;;;;;;;2.30;2.05;;;22.90;97.70;;;;;;4191969;28;20211;-74
2022/05/16 02:15:18;;;;;;;3.53;2.17;;;22.90;97.70;;;;;;4192215;28;20227;-74
2022/05/16 02:17:20;;;;;;;2.45;2.00;;;22.90;97.80;;;;;;4191398;28;20272;-74
2022/05/16 02:19:22;;;;;;;2.95;2.47;;;22.90;97.80;;;;;;4192038;28;20219;-74
2022/05/16 02:26:04;;;;;;;2.60;2.40;;;22.90;97.70;;;;;;4191456;28;20227;-74
2022/05/16 02:28:09;;;;;;;4.18;2.53;;;22.90;97.70;;;;;;4190719;28;20256;-74
2022/05/16 02:30:15;;;;;;;3.05;2.50;;;22.90;97.80;;;;;;4191536;28;20962;-74
2022/05/16 02:32:17;;;;;;;3.50;2.63;;;22.90;97.80;;;;;;4190786;28;20282;-74
2022/05/16 02:34:20;;;;;;;3.17;2.22;;;22.90;97.80;;;;;;4191757;28;20281;-74
2022/05/16 02:36:22;;;;;;;3.35;2.50;;;22.90;97.70;;;;;;4191159;28;20226;-74
2022/05/16 02:38:24;;;;;;;2.63;2.28;;;22.90;97.80;;;;;;4190405;28;20207;-74
2022/05/16 02:40:27;;;;;;;2.60;2.15;;;22.90;97.80;;;;;;4191949;28;20268;-74
2022/05/16 02:42:30;;;;;;;3.55;2.60;;;22.90;97.80;;;;;;4190640;28;20227;-74
2022/05/16 02:44:32;;;;;;;4.13;2.70;;;22.90;97.80;;;;;;4188027;28;21039;-74
2022/05/16 02:46:37;;;;;;;3.05;2.25;;;22.90;97.80;;;;;;4189261;28;20215;-74
2022/05/16 02:48:39;;;;;;;3.67;2.33;;;22.90;97.80;;;;;;4191254;28;20223;-74
2022/05/16 02:50:41;;;;;;;2.38;1.95;;;22.90;97.80;;;;;;4191780;28;20219;-74
2022/05/16 02:52:44;;;;;;;2.58;2.20;;;22.90;97.80;;;;;;4191389;28;20685;-74
2022/05/16 02:54:46;;;;;;;2.55;2.10;;;22.90;97.80;;;;;;4191747;28;20276;-74
2022/05/16 02:56:48;;;;;;;2.53;2.20;;;22.90;97.80;;;;;;4192053;28;20241;-74
2022/05/16 02:58:51;;;;;;;3.35;2.38;;;22.90;97.70;;;;;;4191546;28;20261;-74
2022/05/16 03:00:53;;;;;;;2.67;2.25;;;22.90;97.80;;;;;;4191729;28;20274;-74
2022/05/16 03:02:57;;;;;;;2.47;2.28;;;22.90;97.90;;;;;;4191241;28;20258;-74
2022/05/16 03:05:00;;;;;;;3.75;2.45;;;22.90;97.80;;;;;;4190501;28;20211;-74
2022/05/16 03:07:02;;;;;;;2.40;2.15;;;22.90;97.80;;;;;;4190052;28;20235;-74
2022/05/16 03:09:05;;;;;;;2.95;2.67;;;22.90;97.80;;;;;;4191137;28;20351;-74
2022/05/16 03:11:08;;;;;;;2.97;2.20;;;22.80;97.90;;;;;;4191749;28;20223;-76
2022/05/16 03:13:10;;;;;;;4.28;2.53;;;22.80;97.80;;;;;;4190389;28;20230;-76
2022/05/16 03:15:14;;;;;;;2.80;2.08;;;22.80;97.80;;;;;;4191470;28;20223;-76
2022/05/16 03:17:16;;;;;;;3.40;2.53;;;22.90;97.80;;;;;;4191013;28;20231;-76
2022/05/16 03:19:20;;;;;;;4.07;2.42;;;22.80;97.90;;;;;;4187757;28;20220;-76
2022/05/16 03:21:23;;;;;;;4.10;2.50;;;22.80;97.80;;;;;;4190795;28;20260;-76
2022/05/16 03:23:25;;;;;;;3.30;2.25;;;22.90;98.10;;;;;;4189585;28;20231;-76
2022/05/16 03:25:28;;;;;;;4.25;2.45;;;22.90;97.90;;;;;;4190955;28;21582;-76
2022/05/16 03:27:30;;;;;;;2.78;2.45;;;22.80;97.90;;;;;;4190744;28;20629;-76
2022/05/16 03:29:32;;;;;;;2.42;2.17;;;22.80;97.80;;;;;;4190095;28;20391;-76
2022/05/16 03:31:35;;;;;;;3.88;2.50;;;22.80;97.90;;;;;;4189952;28;20623;-76
2022/05/16 03:33:38;;;;;;;3.05;2.17;;;22.80;97.90;;;;;;4188211;28;20280;-76
2022/05/16 03:35:41;;;;;;;3.17;2.10;;;22.90;97.90;;;;;;4192035;28;20268;-76
2022/05/16 03:37:44;;;;;;;2.72;2.22;;;22.90;97.90;;;;;;4193066;28;20272;-76
2022/05/16 03:42:06;;;;;;;2.67;2.15;;;22.80;97.50;;;;;;4194271;28;20663;-76
2022/05/16 03:44:09;;;;;;;3.38;2.33;;;22.80;97.80;;;;;;4192418;28;20257;-76
2022/05/16 03:46:11;;;;;;;2.83;2.15;;;22.80;97.90;;;;;;4193006;28;20207;-75
2022/05/16 03:48:13;;;;;;;3.13;2.65;;;22.80;98.00;;;;;;4193598;28;20219;-76
2022/05/16 03:50:16;;;;;;;3.65;2.58;;;22.80;98.00;;;;;;4192922;28;20585;-76
2022/05/16 03:52:20;;;;;;;3.33;2.33;;;22.80;97.90;;;;;;4194201;28;20257;-76
2022/05/16 03:54:22;;;;;;;2.53;2.33;;;22.80;98.00;;;;;;4192603;28;20223;-75
2022/05/16 03:56:26;;;;;;;2.88;2.20;;;22.80;97.90;;;;;;4193264;28;20740;-76
2022/05/16 03:58:29;;;;;;;2.85;2.10;;;22.80;97.90;;;;;;4193917;28;20276;-76
2022/05/16 04:00:31;;;;;;;2.42;2.20;;;22.80;97.90;;;;;;4192382;28;20280;-76
2022/05/16 04:02:33;;;;;;;3.58;2.30;;;22.80;97.90;;;;;;4192601;28;20216;-76
2022/05/16 04:04:36;;;;;;;2.50;2.30;;;22.80;97.90;;;;;;4192057;28;20257;-76
2022/05/16 04:06:39;;;;;;;2.45;2.13;;;22.80;97.90;;;;;;4192431;28;20284;-76
2022/05/16 04:08:43;;;;;;;2.60;2.10;;;22.80;97.90;;;;;;4193825;28;20256;-76
2022/05/16 04:10:45;;;;;;;2.40;2.03;;;22.80;98.00;;;;;;4191620;28;20285;-76
2022/05/16 04:12:48;;;;;;;3.15;2.15;;;22.80;98.00;;;;;;4192541;28;20643;-76
2022/05/16 04:14:52;;;;;;;2.67;2.20;;;22.80;98.00;;;;;;4192545;28;20298;-76
2022/05/16 04:16:54;;;;;;;2.63;2.30;;;22.80;98.00;;;;;;4193160;28;20605;-76
2022/05/16 04:18:56;;;;;;;2.42;2.22;;;22.80;98.10;;;;;;4192719;28;20227;-75
2022/05/16 04:20:59;;;;;;;2.50;2.30;;;22.80;98.20;;;;;;4192887;28;20223;-76
2022/05/16 04:23:01;;;;;;;2.55;2.05;;;22.80;98.20;;;;;;4191986;28;20260;-76
2022/05/16 04:25:06;;;;;;;2.83;2.05;;;22.80;98.10;;;;;;4192107;28;20270;-76
2022/05/16 04:27:08;;;;;;;3.13;2.20;;;22.80;98.10;;;;;;4192522;28;20757;-76
2022/05/16 04:29:11;;;;;;;2.35;1.95;;;22.80;98.50;;;;;;4192535;28;20999;-76
2022/05/16 04:31:13;;;;;;;2.95;2.47;;;22.80;98.10;;;;;;4189226;28;20695;-76
2022/05/16 04:33:16;;;;;;;3.42;2.33;;;22.80;98.20;;;;;;4191792;28;20675;-76
2022/05/16 04:35:18;;;;;;;2.90;2.13;;;22.80;98.30;;;;;;4192581;28;20249;-76
2022/05/16 04:37:20;;;;;;;2.53;2.08;;;22.80;98.30;;;;;;4192378;28;20275;-76
2022/05/16 04:39:22;;;;;;;2.38;2.15;;;22.80;98.30;;;;;;4192924;28;20219;-76
2022/05/16 04:43:47;;;;;;;2.42;2.20;;;22.70;98.20;;;;;;4192324;28;20599;-76
2022/05/16 04:45:49;;;;;;;2.22;2.03;;;22.80;98.30;;;;;;4191953;28;20282;-76
2022/05/16 04:47:53;;;;;;;2.42;1.70;;;22.80;98.30;;;;;;4191533;28;20293;-76
2022/05/16 04:49:55;;;;;;;2.10;1.90;;;22.80;98.30;;;;;;4192017;28;20765;-76
2022/05/16 04:51:58;;;;;;;2.90;2.30;;;22.80;98.30;;;;;;4191529;28;20273;-76
2022/05/16 04:54:00;;;;;;;4.28;2.22;;;22.80;98.20;;;;;;4192305;28;20219;-76
2022/05/16 04:56:04;;;;;;;2.60;2.25;;;22.80;98.20;;;;;;4192989;28;20223;-76
2022/05/16 04:58:09;;;;;;;3.15;2.25;;;22.80;98.30;;;;;;4192303;28;20227;-76
2022/05/16 05:00:14;;;;;;;4.07;2.35;;;22.70;98.20;;;;;;4192707;28;20215;-76
2022/05/16 05:02:17;;;;;;;2.63;2.00;;;22.80;98.10;;;;;;4191157;28;20281;-76
2022/05/16 05:04:20;;;;;;;3.30;2.15;;;22.80;98.20;;;;;;4191787;28;20712;-76
2022/05/16 05:06:23;;;;;;;2.70;2.03;;;22.80;98.30;;;;;;4191315;28;20316;-76
2022/05/16 05:08:25;;;;;;;2.63;2.30;;;22.80;98.20;;;;;;4190606;28;20219;-75
2022/05/16 05:15:23;;;;;;;4.03;2.17;;;22.80;98.20;;;;;;4107333;28;20663;-76
2022/05/16 05:17:25;;;;;;;2.80;2.30;;;22.80;98.30;;;;;;4113314;28;20226;-76
2022/05/16 05:19:46;;;;;;;2.40;1.90;;;22.80;98.30;;;;;;4191704;28;20264;-76
2022/05/16 05:21:48;;;;;;;3.35;2.33;;;22.80;98.40;;;;;;4192044;28;20223;-76
2022/05/16 05:23:52;;;;;;;2.40;2.10;;;22.80;98.50;;;;;;4191417;28;20975;-76
2022/05/16 05:26:13;;;;;;;1.95;1.85;;;22.80;98.60;;;;;;4189751;28;20223;-76
2022/05/16 05:28:15;;;;;;;3.42;2.20;;;22.80;98.60;;;;;;4192518;28;20253;-76
2022/05/16 05:30:20;;;;;;;2.13;1.73;;;22.80;98.50;;;;;;4192266;28;20251;-76
2022/05/16 05:32:24;;;;;;;3.20;2.20;;;22.80;98.60;;;;;;4191430;28;20235;-76
2022/05/16 05:34:26;;;;;;;3.67;2.03;;;22.80;98.60;;;;;;4191029;28;20219;-76
2022/05/16 05:36:47;;;;;;;3.00;2.03;;;22.80;98.60;;;;;;4191592;28;20219;-76
2022/05/16 05:38:51;;;;;;;2.80;2.10;;;22.80;98.70;;;;;;4191319;28;20624;-76
2022/05/16 05:40:54;;;;;;;3.33;2.10;;;22.80;98.60;;;;;;4191649;28;20204;-76
2022/05/16 05:42:56;;;;;;;3.42;2.40;;;22.80;98.60;;;;;;4190444;28;20227;-76
2022/05/16 05:44:59;;;;;;;2.80;2.13;;;22.80;98.70;;;;;;4190935;28;20218;-76
2022/05/16 05:47:01;;;;;;;4.90;2.40;;;22.80;98.70;;;;;;4191270;28;20268;-77
2022/05/16 05:49:06;;;;;;;2.03;1.85;;;22.80;98.60;;;;;;4190397;28;20223;-76
2022/05/16 05:51:08;;;;;;;3.10;2.22;;;22.80;98.90;;;;;;4191657;28;20336;-76
2022/05/16 05:53:10;;;;;;;2.85;2.17;;;22.80;98.60;;;;;;4191686;28;20239;-76
2022/05/16 05:55:13;;;;;;;3.13;2.10;;;22.80;98.60;;;;;;4191254;28;21008;-76
2022/05/16 05:57:16;;;;;;;3.53;2.13;;;22.90;98.70;;;;;;4191703;28;20265;-76
2022/05/16 05:59:18;;;;;;;3.22;1.92;;;22.80;98.60;;;;;;4190379;28;20215;-76
2022/05/16 06:01:21;;;;;;;3.30;2.17;;;22.90;98.70;;;;;;4190432;28;20822;-76
2022/05/16 06:03:23;;;;;;;2.28;2.05;;;22.80;98.60;;;;;;4190407;28;20231;-76
2022/05/16 06:05:27;;;;;;;2.92;2.10;;;22.90;98.70;;;;;;4188236;28;20353;-77
2022/05/16 06:07:30;;;;;;;3.05;2.40;;;22.90;99.00;;;;;;4190959;28;20239;-76
2022/05/16 06:09:32;;;;;;;3.60;2.10;;;22.90;98.70;;;;;;4191234;28;20227;-76
2022/05/16 06:11:34;;;;;;;2.97;2.17;;;22.90;98.70;;;;;;4191757;28;20246;-76
2022/05/16 06:13:38;;;;;;;2.78;2.30;;;22.90;98.60;;;;;;4189876;28;20268;-76
2022/05/16 06:15:40;;;;;;;2.90;2.45;;;22.90;98.70;;;;;;4190785;28;20280;-76
2022/05/16 06:17:43;;;;;;;2.97;1.98;;;22.90;98.70;;;;;;4191500;28;20269;-76
2022/05/16 06:19:46;;;;;;;3.00;2.15;;;22.90;98.60;;;;;;4187311;28;20227;-76
2022/05/16 06:21:49;;;;;;;3.08;2.03;;;22.90;98.70;;;;;;4190299;28;20652;-76
2022/05/16 06:23:52;;;;;;;2.22;2.00;;;22.90;98.80;;;;;;4189735;28;20249;-76
2022/05/16 06:25:53;;;;;;;2.85;2.10;;;22.90;98.80;;;;;;4190732;28;20264;-76
2022/05/16 06:27:56;;;;;;;3.13;2.17;;;22.90;98.80;;;;;;4191025;28;20627;-76
2022/05/16 06:29:58;;;;;;;3.53;1.90;;;22.90;98.60;;;;;;4190638;28;20276;-76
2022/05/16 06:32:00;;;;;;;2.88;2.10;;;22.90;98.80;;;;;;4191505;28;20280;-76
2022/05/16 06:34:03;;;;;;;3.45;2.00;;;22.90;98.90;;;;;;4191225;28;20852;-76
2022/05/16 06:36:06;;;;;;;3.90;2.28;;;22.90;98.90;;;;;;4189996;28;20222;-76
2022/05/16 06:38:12;;;;;;;2.50;2.10;;;22.90;98.90;;;;;;4190306;28;20659;-76
2022/05/16 06:40:17;;;;;;;5.63;2.10;;;22.90;98.90;;;;;;4190132;28;20222;-76
2022/05/16 06:42:19;;;;;;;2.22;2.03;;;22.90;98.90;;;;;;4190973;28;20290;-76
2022/05/16 06:44:21;;;;;;;3.28;2.30;;;22.90;98.80;;;;;;4191281;28;20671;-76
2022/05/16 06:46:23;;;;;;;5.13;2.42;;;23.00;99.00;;;;;;4190581;28;20292;-77
2022/05/16 06:48:26;;;;;;;5.22;2.35;;;22.90;99.90;;;;;;4192025;28;20227;-75
2022/05/16 06:50:28;;;;;;;6.80;2.90;;;22.60;99.90;;;;;;4191440;28;20280;-75
2022/05/16 06:52:31;;;;;;;6.10;2.58;;;22.50;99.90;;;;;;4190855;28;20307;-76
2022/05/16 06:54:34;;;;;;;5.90;2.53;;;22.40;99.90;;;;;;4189634;28;20312;-75
2022/05/16 06:56:37;;;;;;;8.52;2.85;;;22.50;99.90;;;;;;4180883;28;20231;-76
2022/05/16 06:58:39;;;;;;;6.40;2.40;;;22.50;99.90;;;;;;4183494;28;20227;-75
2022/05/16 07:00:42;;;;;;;4.97;2.47;;;22.50;99.90;;;;;;4180432;28;20227;-74
2022/05/16 07:02:45;;;;;;;8.60;2.67;;;22.50;99.90;;;;;;4186229;28;20216;-75
2022/05/16 07:04:47;;;;;;;7.72;2.42;;;22.50;99.90;;;;;;4187154;28;20281;-76
2022/05/16 07:06:49;;;;;;;6.25;2.67;;;22.50;99.90;;;;;;4188165;28;20235;-76
2022/05/16 07:08:52;;;;;;;7.80;2.92;;;22.50;99.90;;;;;;4188153;28;20688;-77
2022/05/16 07:10:55;;;;;;;7.13;2.78;;;22.50;99.90;;;;;;4187868;28;20638;-77
2022/05/16 07:12:58;;;;;;;7.20;2.40;;;22.40;99.90;;;;;;4189516;28;20745;-76
2022/05/16 07:15:00;;;;;;;13.10;2.90;;;22.40;99.90;;;;;;4187050;28;20215;-76
2022/05/16 07:17:03;;;;;;;5.75;2.63;;;22.40;99.90;;;;;;4182278;28;20280;-76
2022/05/16 07:19:06;;;;;;;6.20;2.50;;;22.50;99.90;;;;;;4177216;28;20296;-76
2022/05/16 07:21:09;;;;;;;5.97;2.70;;;22.50;99.90;;;;;;4185330;28;20245;-77
2022/05/16 07:23:13;;;;;;;5.00;2.47;;;22.50;99.90;;;;;;4185106;28;20231;-77
2022/05/16 07:25:18;;;;;;;9.32;2.80;;;22.60;99.90;;;;;;4189757;28;20250;-76
2022/05/16 07:29:43;;;;;;;12.02;2.88;;;22.70;99.90;;;;;;4176560;28;20203;-75
2022/05/16 07:31:46;;;;;;;8.35;3.13;;;22.60;99.90;;;;;;4182326;28;20239;-75
2022/05/16 07:33:48;;;;;;;7.32;2.80;;;22.60;99.90;;;;;;4183877;28;20266;-75
2022/05/16 07:35:52;;;;;;;9.35;2.78;;;22.60;99.90;;;;;;4174437;28;20210;-75
2022/05/16 07:37:56;;;;;;;8.73;2.97;;;22.60;99.90;;;;;;4177392;28;20228;-74
2022/05/16 07:39:59;;;;;;;7.82;3.05;;;22.60;99.90;;;;;;4184789;28;20219;-74
2022/05/16 07:42:01;;;;;;;6.68;2.88;;;22.60;99.90;;;;;;4179146;28;20347;-74
2022/05/16 07:44:05;;;;;;;9.00;3.05;;;22.60;99.90;;;;;;4182812;28;20346;-75
2022/05/16 07:46:08;;;;;;;10.15;3.08;;;22.60;99.90;;;;;;4185001;28;20280;-75
2022/05/16 07:48:12;;;;;;;5.50;3.10;;;22.60;99.90;;;;;;4184887;28;20227;-76
2022/05/16 07:50:15;;;;;;;7.15;2.85;;;22.60;99.90;;;;;;4179136;28;20659;-77
2022/05/16 07:52:18;;;;;;;9.15;3.20;;;22.80;99.90;;;;;;4181284;28;20261;-77
2022/05/16 07:54:20;;;;;;;7.68;2.78;;;22.70;99.90;;;;;;4182897;28;20268;-77
2022/05/16 07:56:23;;;;;;;6.38;3.03;;;22.70;99.90;;;;;;4181794;28;20971;-76
2022/05/16 07:58:26;;;;;;;9.98;3.35;;;22.70;99.90;;;;;;4187825;28;20215;-76
2022/05/16 08:00:30;;;;;;;6.97;3.03;;;22.60;99.90;;;;;;4185087;28;20226;-77
2022/05/16 08:02:32;;;;;;;6.32;3.15;;;22.60;99.90;;;;;;4187373;28;20268;-77
2022/05/16 08:04:36;;;;;;;9.30;3.00;;;22.70;99.90;;;;;;4189495;28;20211;-76
2022/05/16 08:06:39;;;;;;;7.50;3.10;;;22.70;99.90;;;;;;4186815;28;20332;-77
2022/05/16 08:11:02;;;;;;;9.90;3.38;;;22.70;99.90;;;;;;4178680;28;20223;-76
2022/05/16 08:13:07;;;;;;;7.60;3.42;;;22.80;99.90;;;;;;4185352;28;20281;-77
2022/05/16 08:15:10;;;;;;;9.02;3.90;;;22.80;99.90;;;;;;4186391;28;21899;-76
2022/05/16 08:17:14;;;;;;;8.70;2.97;;;22.90;99.90;;;;;;4187640;28;20296;-76
2022/05/16 08:19:16;;;;;;;5.65;3.15;;;22.90;99.90;;;;;;4183239;28;20211;-77
2022/05/16 08:21:18;;;;;;;7.63;3.55;;;22.80;99.90;;;;;;4175397;28;20668;-76
2022/05/16 08:23:25;;;;;;;8.60;3.85;;;22.80;99.90;;;;;;4189230;28;20588;-76
2022/05/16 08:25:28;;;;;;;7.07;3.35;;;22.80;99.90;;;;;;4191376;28;20223;-77
2022/05/16 08:27:31;;;;;;;7.82;3.58;;;22.80;99.90;;;;;;4190887;28;20271;-76
2022/05/16 08:29:33;;;;;;;6.07;3.67;;;22.80;99.90;;;;;;4190714;28;20207;-76
2022/05/16 08:31:35;;;;;;;9.48;3.42;;;22.80;99.90;;;;;;4189905;28;20305;-76
2022/05/16 08:33:41;;;;;;;10.60;4.00;;;22.80;99.90;;;;;;4192593;28;20268;-76
2022/05/16 08:35:43;;;;;;;10.35;3.47;;;22.90;99.90;;;;;;4191657;28;20245;-76
2022/05/16 08:40:10;;;;;;;6.63;3.22;;;22.90;99.90;;;;;;4157602;28;20320;-76
2022/05/16 08:42:14;;;;;;;5.65;3.63;;;22.90;99.90;;;;;;4189735;28;20211;-77
2022/05/16 08:44:22;;;;;;;6.20;3.92;;;22.90;99.90;;;;;;4181517;28;20219;-76
2022/05/16 08:46:34;;;;;;;8.73;3.45;;;22.90;99.90;;;;;;4188859;28;20757;-76
2022/05/16 08:48:41;;;;;;;9.65;4.47;;;22.90;99.90;;;;;;4192213;28;20304;-75
2022/05/16 08:50:49;;;;;;;11.70;4.30;;;22.90;99.90;;;;;;4189031;28;20625;-75
2022/05/16 08:52:57;;;;;;;10.27;4.57;;;22.90;99.90;;;;;;4191074;28;20679;-75
2022/05/16 08:55:04;;;;;;;12.07;4.30;;;22.70;99.90;;;;;;4187394;28;20215;-77
2022/05/16 08:57:11;;;;;;;13.13;4.07;;;22.70;99.90;;;;;;4191439;28;20272;-76
2022/05/16 08:59:17;;;;;;;10.80;4.22;;;22.60;99.90;;;;;;4185403;28;20273;-78
2022/05/16 09:01:26;;;;;;;14.05;4.47;;;22.80;99.90;;;;;;4189365;28;20218;-80
2022/05/16 09:03:36;;;;;;;9.18;3.75;;;23.00;99.90;;;;;;4185728;28;20211;-79
2022/05/16 09:05:45;;;;;;;9.25;4.07;;;23.10;99.90;;;;;;4183596;28;20253;-78
2022/05/16 09:07:50;;;;;;;11.68;4.50;;;23.30;99.90;;;;;;4189346;28;20284;-80
2022/05/16 09:10:01;;;;;;;8.32;4.20;;;23.40;99.90;;;;;;4191290;28;20227;-79
2022/05/16 09:12:13;;;;;;;8.20;3.80;;;23.40;99.90;;;;;;4187806;28;20667;-79
2022/05/16 09:14:29;;;;;;;9.52;4.25;;;23.40;99.90;;;;;;4190757;28;20214;-79
2022/05/16 09:16:45;;;;;;;6.68;4.20;;;23.40;99.90;;;;;;4190313;28;20292;-79
2022/05/16 09:19:01;;;;;;;10.38;4.25;;;23.50;99.90;;;;;;4190845;28;20227;-80
2022/05/16 09:21:12;;;;;;;10.73;4.95;;;23.50;99.90;;;;;;4190969;28;20667;-80
2022/05/16 09:23:24;;;;;;;10.85;4.90;;;23.50;99.90;;;;;;4192135;28;20265;-79
2022/05/16 09:25:38;;;;;;;7.45;4.90;;;23.50;99.90;;;;;;4193251;28;20261;-78
2022/05/16 09:30:01;;;;;;;11.60;4.78;;;23.50;99.90;;;;;;4185794;28;20207;-78
2022/05/16 09:32:09;;;;;;;8.85;4.70;;;23.50;99.90;;;;;;4187037;28;20260;-76
2022/05/16 09:34:14;;;;;;;11.65;5.05;;;23.40;99.90;;;;;;4189739;28;20219;-75
2022/05/16 09:36:22;;;;;;;10.88;4.50;;;23.40;99.90;;;;;;4190017;28;20257;-77
2022/05/16 09:38:25;;;;;;;8.60;4.43;;;23.40;99.90;;;;;;4190453;28;20214;-76
2022/05/16 09:40:34;;;;;;;10.27;5.10;;;23.40;99.90;;;;;;4188480;28;20218;-75
2022/05/16 09:42:37;;;;;;;10.13;4.68;;;23.40;99.90;;;;;;4186539;28;20241;-73
2022/05/16 09:44:44;;;;;;;9.25;4.85;;;23.50;99.90;;;;;;4190461;28;20729;-72
2022/05/16 09:46:47;;;;;;;10.50;4.53;;;23.40;99.90;;;;;;4178505;28;20261;-72
2022/05/16 09:49:02;;;;;;;9.60;4.43;;;23.30;99.90;;;;;;4187183;28;20211;-73
2022/05/16 09:51:07;;;;;;;15.02;5.57;;;23.40;99.90;;;;;;4191859;28;20269;-72
2022/05/16 09:53:15;;;;;;;11.95;4.85;;;23.30;99.90;;;;;;4180058;28;21363;-73
2022/05/16 09:55:30;;;;;;;11.40;5.70;;;23.40;99.90;;;;;;4178520;28;21486;-72
2022/05/16 09:57:39;;;;;;;6.82;4.95;;;23.40;99.90;;;;;;4188160;28;20284;-72
2022/05/16 09:59:47;;;;;;;10.30;5.35;;;23.50;99.90;;;;;;4178879;28;24410;-73
2022/05/16 10:01:53;;;;;;;11.20;6.00;;;23.30;99.90;;;;;;4184602;28;20602;-74
2022/05/16 10:03:56;;;;;;;14.20;5.30;;;23.40;99.90;;;;;;4188381;28;20279;-75
2022/05/16 10:06:00;;;;;;;12.23;6.32;;;23.40;99.90;;;;;;4188623;28;20223;-75
2022/05/16 10:08:10;;;;;;;11.68;5.38;;;23.30;99.90;;;;;;4154241;28;20733;-73
2022/05/16 10:10:21;;;;;;;12.45;5.90;;;23.40;99.90;;;;;;4152750;28;20219;-72
2022/05/16 10:12:27;;;;;;;12.05;5.60;;;23.30;99.90;;;;;;4152488;28;20220;-77
2022/05/16 10:14:29;;;;;;;7.95;5.75;;;23.30;99.90;;;;;;4148319;28;20212;-72
2022/05/16 10:16:36;;;;;;;11.07;5.75;;;23.20;99.90;;;;;;4154198;28;20649;-72
2022/05/16 10:18:43;;;;;;;18.92;6.75;;;23.30;99.90;;;;;;4154567;28;20224;-72
2022/05/16 10:20:49;;;;;;;10.35;6.35;;;23.30;99.90;;;;;;4151299;28;20258;-74
2022/05/16 10:22:55;;;;;;;9.23;5.93;;;23.20;99.90;;;;;;4149910;28;20262;-73
2022/05/16 10:24:59;;;;;;;11.10;6.53;;;23.30;99.90;;;;;;4156465;28;20638;-75
2022/05/16 10:27:06;;;;;;;10.68;6.20;;;23.40;99.90;;;;;;4152407;28;20279;-73
2022/05/16 10:29:12;;;;;;;16.17;6.30;;;23.30;99.90;;;;;;4155185;28;20220;-73
2022/05/16 10:33:42;;;;;;;9.40;5.80;;;23.40;99.90;;;;;;4154220;28;20224;-73
2022/05/16 10:35:49;;;;;;;11.18;6.07;;;23.40;99.90;;;;;;4147399;28;20231;-73
2022/05/16 10:37:55;;;;;;;9.65;6.50;;;23.40;99.90;;;;;;4153627;28;20546;-73
2022/05/16 10:40:03;;;;;;;12.68;5.93;;;23.30;99.90;;;;;;4150556;28;20615;-73
2022/05/16 10:42:12;;;;;;;13.35;6.38;;;23.40;99.90;;;;;;4152228;28;20224;-72
2022/05/16 10:44:30;;;;;;;16.55;5.88;;;23.30;99.90;;;;;;4146439;28;20944;-73
2022/05/16 10:46:36;;;;;;;11.23;6.47;;;23.30;99.90;;;;;;4149706;28;21041;-72
2022/05/16 10:48:45;;;;;;;12.10;6.30;;;23.30;99.90;;;;;;4153082;28;20741;-72
2022/05/16 10:50:51;;;;;;;13.95;6.25;;;23.40;99.90;;;;;;4152564;28;20224;-72
2022/05/16 10:52:59;;;;;;;8.90;5.88;;;23.40;99.90;;;;;;4149406;28;20251;-73
2022/05/16 10:55:02;;;;;;;7.05;4.93;;;23.40;99.90;;;;;;4151173;28;20294;-74
2022/05/16 10:57:17;;;;;;;6.40;5.20;;;23.40;99.90;;;;;;4152421;28;20217;-73
2022/05/16 10:59:32;;;;;;;9.00;5.88;;;23.40;99.90;;;;;;4150245;28;20213;-74
2022/05/16 11:01:41;;;;;;;13.20;6.15;;;23.40;99.90;;;;;;4152328;28;20270;-74
2022/05/16 11:04:13;;;;;;;6.78;5.03;;;23.40;99.90;;;;;;4157053;28;20266;-73
2022/05/16 11:06:33;;;;;;;8.43;4.70;;;23.40;99.90;;;;;;4151498;28;21223;-73
2022/05/16 11:08:45;;;;;;;14.57;5.20;;;23.50;99.90;;;;;;4183004;28;20215;-74
2022/05/16 11:10:55;;;;;;;13.50;5.10;;;23.50;99.90;;;;;;4184987;28;20214;-74
2022/05/16 11:13:10;;;;;;;11.80;4.90;;;23.50;99.90;;;;;;4185723;28;20219;-73
2022/05/16 11:15:30;;;;;;;9.23;5.07;;;23.30;99.90;;;;;;4185528;28;20284;-75